.
WxDataArchive / Data Records for 2008-02-05
2008-02-04 February 2008 2008-02-06

Data Records for Tuesday, 05 February 2008

Time	Temp	Chill	HIndex	Humid	Dewpt	 Wind 	HiWind	WindDir	Rain 	Barom 
-----	----	-----	------	-----	-----	------	------	-------	-----	----- 
00:00	50.4	50.4	50.4	99	50.1	1	4	338	0.00	29.704 
00:05	50.7	50.7	50.7	99	50.4	0	3	248	0.00	29.709 
00:10	51.0	51.0	51.0	100	51.0	1	3	248	0.00	29.708 
00:15	50.7	50.7	50.7	100	50.7	0	3	0	0.00	29.708 
00:20	50.7	50.7	50.7	100	50.7	1	7	158	0.00	29.708 
00:25	50.5	50.5	50.5	99	50.2	1	2	158	0.00	29.706 
00:30	50.5	50.5	50.5	99	50.2	1	2	112	0.00	29.706 
00:35	51.0	51.0	51.0	100	51.0	1	3	22	0.00	29.708 
00:40	51.7	51.7	51.7	100	51.7	1	6	248	0.00	29.716 
00:45	52.0	52.0	52.0	100	52.0	1	4	338	0.00	29.739 
00:50	51.6	51.6	51.6	100	51.6	0	2	338	0.00	29.729 
00:55	51.3	51.3	51.3	100	51.3	1	4	45	0.00	29.737 
01:00	50.5	50.5	50.5	99	50.2	1	3	45	0.00	29.712 
01:05	52.5	52.5	52.5	100	52.5	4	13	292	0.00	29.713 
01:10	52.5	52.5	52.5	100	52.5	2	13	292	0.00	29.743 
01:15	52.2	52.2	52.2	100	52.2	3	13	292	0.03	29.742 
01:20	52.2	52.2	52.2	100	52.2	5	13	248	0.13	29.721 
01:25	52.3	52.3	52.3	100	52.3	4	10	248	0.09	29.712 
01:30	52.5	52.5	52.5	100	52.5	3	8	248	0.05	29.706 
01:35	52.3	52.3	52.3	100	52.3	5	11	270	0.05	29.731 
01:40	52.8	52.8	52.8	100	52.8	6	18	248	0.07	29.745 
01:45	53.2	53.2	53.2	100	53.2	9	19	270	0.13	29.747 
01:50	53.1	53.1	53.1	100	53.1	8	18	270	0.09	29.724 
01:55	52.3	52.3	52.3	100	52.3	5	10	270	0.02	29.712 
02:00	51.7	51.7	51.7	99	51.4	5	11	248	0.01	29.726 
02:05	51.6	51.6	51.6	99	51.3	6	13	270	0.00	29.723 
02:10	51.6	51.6	51.6	99	51.3	4	11	248	0.01	29.731 
02:15	51.6	51.6	51.6	99	51.3	4	10	248	0.01	29.732 
02:20	51.7	51.7	51.7	99	51.4	5	12	248	0.01	29.736 
02:25	52.0	52.0	52.0	99	51.7	5	11	270	0.01	29.732 
02:30	52.5	52.5	52.5	99	52.2	7	14	248	0.01	29.734 
02:35	52.5	52.5	52.5	99	52.2	4	10	248	0.01	29.723 
02:40	52.5	52.5	52.5	99	52.2	4	9	248	0.00	29.714 
02:45	52.6	52.6	52.6	99	52.3	4	9	248	0.01	29.715 
02:50	52.6	52.6	52.6	99	52.3	3	7	248	0.01	29.716 
02:55	52.5	52.5	52.5	99	52.2	3	7	248	0.00	29.711 
03:00	52.3	52.3	52.3	99	52.0	3	7	248	0.00	29.712 
03:05	52.5	52.5	52.5	99	52.2	3	8	248	0.00	29.709 
03:10	52.6	52.6	52.6	99	52.3	3	6	248	0.00	29.709 
03:15	52.8	52.8	52.8	99	52.5	2	5	248	0.00	29.713 
03:20	53.1	53.1	53.1	99	52.8	4	9	248	0.00	29.713 
03:25	53.2	53.2	53.2	99	52.9	3	10	248	0.00	29.713 
03:30	53.3	53.3	53.3	99	53.0	4	11	248	0.00	29.710 
03:35	53.5	53.5	53.5	99	53.2	2	6	248	0.00	29.705 
03:40	53.5	53.5	53.5	99	53.2	2	7	248	0.01	29.701 
03:45	53.5	53.5	53.5	99	53.2	2	5	248	0.00	29.692 
03:50	53.3	53.3	53.3	99	53.0	1	4	248	0.00	29.686 
03:55	53.2	53.2	53.2	99	52.9	1	4	248	0.01	29.683 
04:00	53.1	53.1	53.1	99	52.8	1	2	248	0.00	29.683 
04:05	52.9	52.9	52.9	99	52.6	0	1	248	0.00	29.676 
04:10	52.8	52.8	52.8	99	52.5	0	1	248	0.00	29.672 
04:15	52.6	52.6	52.6	99	52.3	0	1	248	0.00	29.679 
04:20	52.6	52.6	52.6	99	52.3	0	2	248	0.00	29.686 
04:25	52.6	52.6	52.6	99	52.3	0	1	248	0.00	29.690 
04:30	52.8	52.8	52.8	99	52.5	1	2	248	0.00	29.720 
04:35	52.5	52.5	52.5	99	52.2	1	4	248	0.00	29.739 
04:40	52.5	52.5	52.5	99	52.2	1	4	248	0.00	29.747 
04:45	52.3	52.3	52.3	99	52.0	1	3	270	0.00	29.739 
04:50	52.3	52.3	52.3	99	52.0	0	1	270	0.00	29.737 
04:55	52.3	52.3	52.3	99	52.0	0	1	270	0.00	29.733 
05:00	52.2	52.2	52.2	99	51.9	0	3	248	0.00	29.722 
05:05	52.3	52.3	52.3	99	52.0	0	1	248	0.00	29.719 
05:10	52.3	52.3	52.3	99	52.0	1	2	248	0.00	29.722 
05:15	52.5	52.5	52.5	99	52.2	1	3	248	0.00	29.723 
05:20	52.3	52.3	52.3	99	52.0	1	3	248	0.00	29.733 
05:25	52.2	52.2	52.2	99	51.9	1	3	248	0.00	29.732 
05:30	52.2	52.2	52.2	99	51.9	1	4	248	0.00	29.746 
05:35	52.2	52.2	52.2	99	51.9	2	6	248	0.01	29.747 
05:40	52.2	52.2	52.2	99	51.9	1	3	248	0.01	29.741 
05:45	52.0	52.0	52.0	99	51.7	1	3	248	0.01	29.737 
05:50	52.0	52.0	52.0	99	51.7	0	2	248	0.00	29.737 
05:55	52.0	52.0	52.0	99	51.7	1	4	248	0.00	29.739 
06:00	51.9	51.9	51.9	99	51.6	2	5	248	0.00	29.745 
06:05	51.7	51.7	51.7	99	51.4	1	3	225	0.00	29.750 
06:10	51.6	51.6	51.6	99	51.3	0	2	225	0.00	29.748 
06:15	51.6	51.6	51.6	99	51.3	1	3	248	0.00	29.740 
06:20	51.4	51.4	51.4	99	51.1	1	3	248	0.00	29.754 
06:25	51.4	51.4	51.4	99	51.1	1	3	248	0.00	29.755 
06:30	51.4	51.4	51.4	99	51.1	1	4	248	0.00	29.755 
06:35	51.3	51.3	51.3	99	51.0	2	5	248	0.00	29.760 
06:40	51.1	51.1	51.1	99	50.8	1	3	248	0.00	29.764 
06:45	51.1	51.1	51.1	99	50.8	2	5	248	0.00	29.769 
06:50	51.1	51.1	51.1	99	50.8	1	7	248	0.00	29.767 
06:55	51.1	51.1	51.1	99	50.8	1	3	248	0.00	29.760 
07:00	51.1	51.1	51.1	99	50.8	1	3	248	0.00	29.753 
07:05	51.0	51.0	51.0	99	50.7	1	3	248	0.00	29.747 
07:10	50.8	50.8	50.8	99	50.5	0	3	248	0.00	29.744 
07:15	50.4	50.4	50.4	99	50.1	0	1	248	0.00	29.737 
07:20	50.4	50.4	50.4	99	50.1	0	2	248	0.00	29.738 
07:25	50.4	50.4	50.4	99	50.1	0	2	248	0.00	29.734 
07:30	50.2	50.2	50.2	99	49.9	0	2	248	0.00	29.746 
07:35	50.2	50.2	50.2	99	49.9	0	2	248	0.00	29.748 
07:40	50.1	50.1	50.1	99	49.8	1	3	248	0.00	29.760 
07:45	49.9	49.9	49.9	99	49.6	0	1	248	0.00	29.763 
07:50	49.9	49.9	49.9	99	49.6	1	4	248	0.00	29.769 
07:55	49.8	49.8	49.8	99	49.5	0	1	248	0.00	29.771 
08:00	49.5	49.5	49.5	99	49.2	0	2	248	0.00	29.763 
08:05	49.4	49.4	49.4	99	49.1	0	1	248	0.00	29.762 
08:10	49.4	49.4	49.4	99	49.1	0	1	248	0.00	29.762 
08:15	49.4	49.4	49.4	99	49.1	0	2	270	0.00	29.765 
08:20	49.2	49.2	49.2	99	48.9	1	3	248	0.00	29.765 
08:25	48.9	48.9	48.9	99	48.6	1	3	248	0.00	29.778 
08:30	48.6	48.6	48.6	99	48.3	1	3	248	0.00	29.778 
08:35	48.3	48.3	48.3	99	48.0	1	5	270	0.00	29.794 
08:40	47.7	47.7	47.7	99	47.4	1	4	292	0.00	29.799 
08:45	46.8	46.8	46.8	99	46.5	2	5	292	0.00	29.812 
08:50	45.8	45.8	45.8	99	45.5	1	4	292	0.00	29.811 
08:55	45.2	45.2	45.2	99	44.9	1	4	338	0.00	29.813 
09:00	44.6	44.6	44.6	98	44.1	1	5	292	0.00	29.813 
09:05	43.9	43.9	43.9	98	43.4	3	6	292	0.00	29.813 
09:10	43.5	43.5	43.5	98	43.0	2	4	292	0.00	29.820 
09:15	43.2	43.2	43.2	98	42.7	2	7	315	0.00	29.819 
09:20	43.1	43.1	43.1	98	42.6	1	7	292	0.00	29.816 
09:25	42.9	42.9	42.9	98	42.4	0	3	292	0.00	29.816 
09:30	42.8	42.8	42.8	98	42.3	1	5	292	0.00	29.813 
09:35	42.6	42.6	42.6	98	42.1	1	4	292	0.00	29.805 
09:40	42.6	42.6	42.6	98	42.1	0	1	292	0.00	29.805 
09:45	42.6	42.6	42.6	98	42.1	0	2	292	0.00	29.813 
09:50	42.6	42.6	42.6	98	42.1	0	2	292	0.00	29.820 
09:55	42.6	42.6	42.6	98	42.1	0	1	292	0.00	29.816 
10:00	42.8	42.8	42.8	99	42.5	0	2	292	0.00	29.820 
10:05	42.9	42.9	42.9	99	42.6	0	1	292	0.00	29.826 
10:10	43.1	43.1	43.1	99	42.8	0	2	292	0.00	29.831 
10:15	43.1	43.1	43.1	99	42.8	0	5	248	0.00	29.830 
10:20	42.9	42.9	42.9	99	42.6	1	3	292	0.00	29.832 
10:25	42.6	42.6	42.6	99	42.3	1	4	292	0.00	29.846 
10:30	42.5	42.5	42.5	99	42.2	1	4	292	0.00	29.847 
10:35	42.5	42.5	42.5	99	42.2	1	5	270	0.00	29.852 
10:40	42.5	42.5	42.5	99	42.2	1	4	315	0.00	29.849 
10:45	42.3	42.3	42.3	99	42.0	1	4	292	0.00	29.849 
10:50	41.9	41.9	41.9	98	41.4	1	3	292	0.00	29.842 
10:55	41.8	41.8	41.8	98	41.3	0	2	292	0.00	29.843 
11:00	41.5	41.5	41.5	98	41.0	1	2	292	0.00	29.846 
11:05	41.2	41.2	41.2	98	40.7	0	3	292	0.00	29.850 
11:10	40.9	40.9	40.9	98	40.4	0	3	292	0.00	29.859 
11:15	40.8	40.8	40.8	98	40.3	1	3	292	0.00	29.863 
11:20	40.5	40.5	40.5	98	40.0	1	4	292	0.00	29.866 
11:25	40.3	40.3	40.3	98	39.8	1	5	270	0.00	29.868 
11:30	39.9	39.9	39.9	98	39.4	1	5	292	0.00	29.863 
11:35	39.9	39.9	39.9	98	39.4	0	4	292	0.00	29.862 
11:40	39.9	39.9	39.9	98	39.4	1	4	292	0.00	29.864 
11:45	39.9	39.9	39.9	98	39.4	1	4	292	0.00	29.864 
11:50	39.9	39.9	39.9	98	39.4	1	3	270	0.00	29.865 
11:55	39.9	39.9	39.9	98	39.4	1	4	248	0.00	29.872 
12:00	40.1	40.1	40.1	98	39.6	0	1	270	0.00	29.862 
12:05	39.9	39.9	39.9	98	39.4	0	2	270	0.00	29.857 
12:10	39.9	39.9	39.9	98	39.4	0	2	270	0.00	29.847 
12:15	39.8	39.8	39.8	98	39.3	0	1	270	0.00	29.851 
12:20	39.6	39.6	39.6	98	39.1	0	2	292	0.00	29.850 
12:25	39.6	39.6	39.6	98	39.1	0	2	292	0.00	29.850 
12:30	39.3	39.3	39.3	98	38.8	0	2	292	0.00	29.849 
12:35	39.3	39.3	39.3	98	38.8	0	3	292	0.00	29.848 
12:40	39.5	39.5	39.5	98	39.0	0	1	292	0.00	29.848 
12:45	39.5	39.5	39.5	98	39.0	0	1	292	0.00	29.844 
12:50	39.5	39.5	39.5	98	39.0	0	1	292	0.00	29.844 
12:55	39.5	39.5	39.5	98	39.0	0	2	292	0.00	29.842 
13:00	39.5	39.5	39.5	98	39.0	0	2	292	0.00	29.834 
13:05	39.6	39.6	39.6	98	39.1	0	2	292	0.00	29.840 
13:10	39.5	39.5	39.5	98	39.0	0	2	292	0.00	29.845 
13:15	39.3	39.3	39.3	98	38.8	0	1	292	0.00	29.849 
13:20	39.2	39.2	39.2	98	38.7	0	0	---	0.00	29.847 
13:25	39.2	39.2	39.2	98	38.7	0	1	292	0.00	29.841 
13:30	39.2	39.2	39.2	98	38.7	0	1	292	0.00	29.833 
13:35	39.2	39.2	39.2	98	38.7	0	1	292	0.00	29.826 
13:40	39.2	39.2	39.2	98	38.7	0	1	292	0.00	29.823 
13:45	39.2	39.2	39.2	98	38.7	0	1	292	0.00	29.822 
13:50	39.1	39.1	39.1	98	38.6	0	0	---	0.00	29.822 
13:55	39.1	39.1	39.1	98	38.6	0	0	---	0.00	29.822 
14:00	39.1	39.1	39.1	98	38.6	0	1	292	0.00	29.826 
14:05	39.1	39.1	39.1	98	38.6	0	1	292	0.00	29.826 
14:10	39.1	39.1	39.1	98	38.6	0	2	292	0.00	29.821 
14:15	39.1	39.1	39.1	98	38.6	0	1	292	0.00	29.817 
14:20	39.1	39.1	39.1	98	38.6	0	1	292	0.00	29.817 
14:25	38.9	38.9	38.9	98	38.4	0	1	292	0.00	29.821 
14:30	38.8	38.8	38.8	98	38.3	0	2	292	0.00	29.830 
14:35	38.8	38.8	38.8	98	38.3	0	1	292	0.00	29.823 
14:40	38.6	38.6	38.6	98	38.1	0	1	292	0.00	29.816 
14:45	38.6	38.6	38.6	98	38.1	0	2	292	0.00	29.816 
14:50	38.6	38.6	38.6	98	38.1	0	2	292	0.00	29.819 
14:55	38.6	38.6	38.6	98	38.1	0	2	292	0.00	29.820 
15:00	38.6	38.6	38.6	98	38.1	0	1	292	0.00	29.823 
15:05	38.8	38.8	38.8	98	38.3	0	2	292	0.00	29.820 
15:10	38.8	38.8	38.8	98	38.3	0	2	292	0.00	29.826 
15:15	38.8	38.8	38.8	98	38.3	0	1	292	0.00	29.825 
15:20	38.6	38.6	38.6	98	38.1	0	1	292	0.00	29.814 
15:25	38.5	38.5	38.5	98	38.0	0	2	292	0.00	29.808 
15:30	38.3	38.3	38.3	98	37.8	0	1	292	0.00	29.810 
15:35	38.0	38.0	38.0	98	37.5	0	2	292	0.00	29.814 
15:40	38.0	38.0	38.0	98	37.5	0	1	292	0.00	29.816 
15:45	37.9	37.9	37.9	98	37.4	0	1	292	0.00	29.823 
15:50	37.8	37.8	37.8	98	37.3	0	2	292	0.00	29.817 
15:55	37.8	37.8	37.8	98	37.3	0	2	292	0.00	29.815 
16:00	37.6	37.6	37.6	98	37.1	0	2	292	0.00	29.815 
16:05	37.6	37.6	37.6	98	37.1	0	2	292	0.00	29.816 
16:10	37.5	37.5	37.5	98	37.0	0	1	292	0.00	29.814 
16:15	37.3	37.3	37.3	98	36.8	0	2	292	0.00	29.815 
16:20	37.3	37.3	37.3	98	36.8	0	2	292	0.00	29.827 
16:25	37.3	37.3	37.3	98	36.8	1	2	90	0.00	29.823 
16:30	37.3	37.3	37.3	98	36.8	0	1	90	0.00	29.833 
16:35	37.3	37.3	37.3	98	36.8	0	2	90	0.00	29.841 
16:40	37.3	37.3	37.3	98	36.8	0	0	---	0.00	29.860 
16:45	37.2	37.2	37.2	98	36.7	0	1	90	0.00	29.863 
16:50	37.2	37.2	37.2	98	36.7	0	0	---	0.00	29.863 
16:55	37.2	37.2	37.2	98	36.7	0	1	90	0.01	29.853 
17:00	37.2	37.2	37.2	98	36.7	0	1	90	0.02	29.843 
17:05	37.2	37.2	37.2	98	36.7	0	1	90	0.00	29.834 
17:10	37.2	37.2	37.2	98	36.7	0	2	90	0.01	29.825 
17:15	37.2	37.2	37.2	98	36.7	0	2	90	0.00	29.816 
17:20	37.0	37.0	37.0	98	36.5	0	2	90	0.00	29.815 
17:25	36.9	36.9	36.9	97	36.1	1	2	90	0.00	29.807 
17:30	36.9	36.9	36.9	97	36.1	1	3	90	0.00	29.801 
17:35	36.8	36.8	36.8	97	36.0	1	3	112	0.00	29.801 
17:40	36.8	36.8	36.8	97	36.0	1	2	135	0.00	29.801 
17:45	36.6	36.6	36.6	97	35.8	1	3	90	0.00	29.789 
17:50	36.6	36.6	36.6	97	35.8	0	3	45	0.00	29.789 
17:55	36.6	36.6	36.6	97	35.8	1	3	45	0.00	29.786 
18:00	36.5	36.5	36.5	98	36.0	1	4	68	0.01	29.779 
18:05	36.5	36.5	36.5	98	36.0	1	4	22	0.00	29.789 
18:10	36.5	36.5	36.5	98	36.0	1	3	68	0.00	29.790 
18:15	36.5	36.5	36.5	98	36.0	1	5	68	0.00	29.789 
18:20	36.5	36.5	36.5	98	36.0	1	4	45	0.00	29.786 
18:25	36.5	36.5	36.5	98	36.0	1	5	45	0.00	29.787 
18:30	36.5	36.5	36.5	98	36.0	2	5	68	0.00	29.787 
18:35	36.5	36.5	36.5	98	36.0	1	4	45	0.00	29.786 
18:40	36.5	36.5	36.5	98	36.0	1	5	45	0.01	29.786 
18:45	36.5	36.5	36.5	98	36.0	1	3	90	0.00	29.786 
18:50	36.5	36.5	36.5	98	36.0	1	5	112	0.00	29.774 
18:55	36.5	36.5	36.5	98	36.0	2	5	45	0.00	29.768 
19:00	36.5	36.5	36.5	98	36.0	2	6	68	0.00	29.765 
19:05	36.5	36.5	36.5	98	36.0	2	5	45	0.00	29.772 
19:10	36.5	36.5	36.5	98	36.0	1	6	112	0.00	29.769 
19:15	36.5	36.5	36.5	98	36.0	2	4	45	0.00	29.772 
19:20	36.5	36.5	36.5	98	36.0	1	4	90	0.01	29.762 
19:25	36.5	36.5	36.5	97	35.7	3	7	90	0.01	29.756 
19:30	36.5	36.5	36.5	97	35.7	2	7	90	0.00	29.762 
19:35	36.3	36.3	36.3	97	35.5	2	6	112	0.01	29.756 
19:40	36.3	36.3	36.3	97	35.5	2	6	135	0.01	29.751 
19:45	36.3	33.0	36.3	97	35.5	4	12	112	0.00	29.724 
19:50	36.2	36.2	36.2	97	35.4	3	9	90	0.01	29.735 
19:55	36.2	32.9	36.2	97	35.4	4	11	112	0.01	29.732 
20:00	36.2	36.2	36.2	97	35.4	2	6	90	0.00	29.754 
20:05	36.2	36.2	36.2	97	35.4	2	5	68	0.01	29.750 
20:10	36.0	36.0	36.0	97	35.2	3	9	112	0.01	29.726 
20:15	36.0	36.0	36.0	97	35.2	3	7	112	0.02	29.723 
20:20	35.9	32.6	35.9	97	35.1	4	10	112	0.00	29.717 
20:25	35.8	31.5	35.8	97	35.0	5	13	112	0.00	29.713 
20:30	35.8	31.5	35.8	97	35.0	5	16	112	0.01	29.698 
20:35	35.6	30.5	35.6	97	34.8	6	15	90	0.00	29.690 
20:40	35.5	31.2	35.5	97	34.7	5	12	112	0.00	29.685 
20:45	35.5	32.1	35.5	97	34.7	4	12	112	0.00	29.683 
20:50	35.3	35.3	35.3	97	34.5	2	8	112	0.01	29.690 
20:55	35.3	35.3	35.3	97	34.5	2	5	45	0.00	29.700 
21:00	35.3	35.3	35.3	97	34.5	2	6	68	0.00	29.701 
21:05	35.3	35.3	35.3	97	34.5	3	6	90	0.00	29.685 
21:10	35.3	35.3	35.3	97	34.5	3	10	112	0.00	29.684 
21:15	35.2	31.8	35.2	97	34.4	4	11	90	0.02	29.676 
21:20	35.2	35.2	35.2	97	34.4	3	10	112	0.03	29.686 
21:25	35.2	35.2	35.2	97	34.4	3	9	22	0.02	29.683 
21:30	35.2	35.2	35.2	97	34.4	3	10	45	0.03	29.674 
21:35	35.2	35.2	35.2	97	34.4	2	9	45	0.04	29.680 
21:40	35.2	35.2	35.2	97	34.4	3	7	45	0.04	29.684 
21:45	35.2	35.2	35.2	97	34.4	2	10	45	0.03	29.682 
21:50	35.2	35.2	35.2	97	34.4	3	10	68	0.03	29.682 
21:55	35.2	31.8	35.2	97	34.4	4	11	90	0.04	29.667 
22:00	35.2	35.2	35.2	97	34.4	3	12	45	0.02	29.667 
22:05	35.2	35.2	35.2	97	34.4	1	4	22	0.01	29.685 
22:10	35.0	31.5	35.0	97	34.2	4	9	90	0.04	29.651 
22:15	35.0	35.0	35.0	97	34.2	3	13	22	0.03	29.661 
22:20	35.0	35.0	35.0	97	34.2	2	7	22	0.03	29.670 
22:25	35.0	35.0	35.0	97	34.2	3	10	90	0.03	29.681 
22:30	35.2	35.2	35.2	97	34.4	3	11	45	0.04	29.690 
22:35	35.2	35.2	35.2	97	34.4	2	7	22	0.03	29.687 
22:40	35.0	31.5	35.0	97	34.2	4	13	45	0.04	29.656 
22:45	35.0	35.0	35.0	97	34.2	3	11	135	0.03	29.684 
22:50	35.0	35.0	35.0	97	34.2	3	11	22	0.02	29.675 
22:55	35.0	31.5	35.0	97	34.2	4	11	45	0.02	29.673 
23:00	34.9	31.4	34.9	97	34.1	4	11	112	0.03	29.670 
23:05	34.9	31.4	34.9	97	34.1	4	14	112	0.04	29.658 
23:10	34.7	30.2	34.7	97	33.9	5	11	45	0.02	29.638 
23:15	34.7	29.4	34.7	97	33.9	6	17	90	0.03	29.603 
23:20	34.6	28.0	34.6	96	33.6	8	19	112	0.02	29.583 
23:25	34.4	27.8	34.4	96	33.4	8	22	112	0.02	29.567 
23:30	34.3	27.1	34.3	96	33.3	9	19	112	0.01	29.575 
23:35	34.3	26.6	34.3	96	33.3	10	21	112	0.00	29.580 
23:40	34.3	26.6	34.3	96	33.3	10	21	112	0.01	29.573 
23:45	34.1	28.0	34.1	96	33.1	7	17	112	0.01	29.572 
23:50	34.1	27.4	34.1	96	33.1	8	18	112	0.02	29.565 
23:55	34.1	28.0	34.1	96	33.1	7	16	112	0.01	29.568 

CoCoRaHS
IN-AL-39
A2 Web Hosting
Creative Commons License
GoDaddy
Look for:

loaded 2017-10-17 22:13:17 • last modified 2010-11-18 10:43:29
Privacy PolicyDisclaimer
• wx.awcolley.com is powered by PmWiki v.2002016 •
• all content (unless otherwise noted) © 2017 A W Colley